Terminal Aerodrome Forecast
Issued by NWS Goodland, KS

Home | Current Version | Previous Version | Text Only | Print | Product List | Glossary On
Versions: 1 2 3 4 5 6 7 8 9 10 11 12 13 14 15 16 17 18 19 20 21 22
000
FTUS43 KGLD 251125
TAFGLD
TAF
KGLD 251125Z 2512/2612 VRB06KT P6SM FEW120
     FM252100 04015KT P6SM SCT100
     FM260100 05010KT P6SM VCTS BKN080CB
     FM260400 06010KT P6SM -TSRA OVC080CB
     FM261100 08010KT P6SM VCTS OVC080CB=

USA.gov is the U.S. government's official web portal to all federal, state and local government web resources and services.